sensor_id;sensor_type;location;lat;lon;timestamp;P1;durP1;ratioP1;P2;durP2;ratioP2
79229;SDS011;68663;49.122;17.544;2023-07-13T00:01:45;6.80;;;5.82;;
79229;SDS011;68663;49.122;17.544;2023-07-13T00:04:18;7.95;;;5.88;;
79229;SDS011;68663;49.122;17.544;2023-07-13T00:06:46;10.27;;;5.53;;
79229;SDS011;68663;49.122;17.544;2023-07-13T00:09:15;12.07;;;5.80;;
79229;SDS011;68663;49.122;17.544;2023-07-13T00:11:42;5.68;;;5.05;;
79229;SDS011;68663;49.122;17.544;2023-07-13T00:14:09;8.55;;;5.15;;
79229;SDS011;68663;49.122;17.544;2023-07-13T00:16:35;8.40;;;5.15;;
79229;SDS011;68663;49.122;17.544;2023-07-13T00:21:29;9.55;;;6.32;;
79229;SDS011;68663;49.122;17.544;2023-07-13T00:23:54;8.30;;;5.68;;
79229;SDS011;68663;49.122;17.544;2023-07-13T00:26:20;6.35;;;4.90;;
79229;SDS011;68663;49.122;17.544;2023-07-13T00:28:45;8.32;;;5.28;;
79229;SDS011;68663;49.122;17.544;2023-07-13T00:31:11;8.77;;;5.57;;
79229;SDS011;68663;49.122;17.544;2023-07-13T00:36:05;8.20;;;5.25;;
79229;SDS011;68663;49.122;17.544;2023-07-13T00:38:31;7.43;;;5.20;;
79229;SDS011;68663;49.122;17.544;2023-07-13T00:40:57;7.95;;;5.45;;
79229;SDS011;68663;49.122;17.544;2023-07-13T00:43:24;9.02;;;5.28;;
79229;SDS011;68663;49.122;17.544;2023-07-13T00:48:18;6.33;;;5.30;;
79229;SDS011;68663;49.122;17.544;2023-07-13T00:50:48;6.75;;;4.97;;
79229;SDS011;68663;49.122;17.544;2023-07-13T00:53:17;6.25;;;5.05;;
79229;SDS011;68663;49.122;17.544;2023-07-13T00:55:44;8.88;;;5.28;;
79229;SDS011;68663;49.122;17.544;2023-07-13T00:58:10;6.05;;;5.10;;
79229;SDS011;68663;49.122;17.544;2023-07-13T01:00:36;5.60;;;5.03;;
79229;SDS011;68663;49.122;17.544;2023-07-13T01:03:04;9.02;;;5.10;;
79229;SDS011;68663;49.122;17.544;2023-07-13T01:05:30;7.20;;;5.45;;
79229;SDS011;68663;49.122;17.544;2023-07-13T01:07:58;8.57;;;5.50;;
79229;SDS011;68663;49.122;17.544;2023-07-13T01:10:25;8.82;;;5.20;;
79229;SDS011;68663;49.122;17.544;2023-07-13T01:12:50;9.40;;;5.28;;
79229;SDS011;68663;49.122;17.544;2023-07-13T01:18:21;6.25;;;4.75;;
79229;SDS011;68663;49.122;17.544;2023-07-13T01:20:59;6.35;;;5.00;;
79229;SDS011;68663;49.122;17.544;2023-07-13T01:23:27;7.10;;;5.32;;
79229;SDS011;68663;49.122;17.544;2023-07-13T01:25:54;5.93;;;4.47;;
79229;SDS011;68663;49.122;17.544;2023-07-13T01:28:21;9.48;;;4.75;;
79229;SDS011;68663;49.122;17.544;2023-07-13T01:30:48;5.65;;;4.57;;
79229;SDS011;68663;49.122;17.544;2023-07-13T01:33:14;4.75;;;4.18;;
79229;SDS011;68663;49.122;17.544;2023-07-13T01:35:42;5.38;;;4.47;;
79229;SDS011;68663;49.122;17.544;2023-07-13T01:38:08;5.88;;;3.75;;
79229;SDS011;68663;49.122;17.544;2023-07-13T01:40:35;5.63;;;4.40;;
79229;SDS011;68663;49.122;17.544;2023-07-13T01:43:02;4.97;;;4.35;;
79229;SDS011;68663;49.122;17.544;2023-07-13T01:45:28;6.22;;;4.22;;
79229;SDS011;68663;49.122;17.544;2023-07-13T01:47:53;5.45;;;3.78;;
79229;SDS011;68663;49.122;17.544;2023-07-13T01:50:19;6.50;;;4.00;;
79229;SDS011;68663;49.122;17.544;2023-07-13T01:52:45;5.35;;;4.22;;
79229;SDS011;68663;49.122;17.544;2023-07-13T01:55:10;8.65;;;4.65;;
79229;SDS011;68663;49.122;17.544;2023-07-13T01:57:36;7.40;;;3.40;;
79229;SDS011;68663;49.122;17.544;2023-07-13T02:00:04;4.35;;;3.95;;
79229;SDS011;68663;49.122;17.544;2023-07-13T02:02:31;8.27;;;4.30;;
79229;SDS011;68663;49.122;17.544;2023-07-13T02:04:57;5.10;;;3.63;;
79229;SDS011;68663;49.122;17.544;2023-07-13T02:07:22;6.13;;;3.37;;
79229;SDS011;68663;49.122;17.544;2023-07-13T02:09:48;5.72;;;3.53;;
79229;SDS011;68663;49.122;17.544;2023-07-13T02:12:13;7.38;;;4.32;;
79229;SDS011;68663;49.122;17.544;2023-07-13T02:14:39;5.93;;;4.13;;
79229;SDS011;68663;49.122;17.544;2023-07-13T02:17:04;5.63;;;3.75;;
79229;SDS011;68663;49.122;17.544;2023-07-13T02:19:31;5.60;;;3.83;;
79229;SDS011;68663;49.122;17.544;2023-07-13T02:21:56;5.50;;;3.55;;
79229;SDS011;68663;49.122;17.544;2023-07-13T02:24:21;6.25;;;4.03;;
79229;SDS011;68663;49.122;17.544;2023-07-13T02:26:47;4.65;;;3.80;;
79229;SDS011;68663;49.122;17.544;2023-07-13T02:29:13;4.57;;;3.45;;
79229;SDS011;68663;49.122;17.544;2023-07-13T02:31:38;6.57;;;3.40;;
79229;SDS011;68663;49.122;17.544;2023-07-13T02:34:04;5.97;;;3.97;;
79229;SDS011;68663;49.122;17.544;2023-07-13T02:36:29;5.47;;;3.55;;
79229;SDS011;68663;49.122;17.544;2023-07-13T02:38:57;5.05;;;3.72;;
79229;SDS011;68663;49.122;17.544;2023-07-13T02:41:26;6.28;;;3.90;;
79229;SDS011;68663;49.122;17.544;2023-07-13T02:43:51;4.38;;;3.70;;
79229;SDS011;68663;49.122;17.544;2023-07-13T02:46:16;7.28;;;3.80;;
79229;SDS011;68663;49.122;17.544;2023-07-13T02:48:42;6.00;;;3.63;;
79229;SDS011;68663;49.122;17.544;2023-07-13T02:51:07;6.00;;;3.90;;
79229;SDS011;68663;49.122;17.544;2023-07-13T02:53:33;5.72;;;3.70;;
79229;SDS011;68663;49.122;17.544;2023-07-13T02:56:00;7.40;;;4.03;;
79229;SDS011;68663;49.122;17.544;2023-07-13T02:58:25;6.40;;;3.87;;
79229;SDS011;68663;49.122;17.544;2023-07-13T03:00:51;4.72;;;3.58;;
79229;SDS011;68663;49.122;17.544;2023-07-13T03:03:17;4.60;;;3.90;;
79229;SDS011;68663;49.122;17.544;2023-07-13T03:05:43;5.97;;;4.00;;
79229;SDS011;68663;49.122;17.544;2023-07-13T03:08:10;4.97;;;3.58;;
79229;SDS011;68663;49.122;17.544;2023-07-13T03:10:36;4.40;;;3.40;;
79229;SDS011;68663;49.122;17.544;2023-07-13T03:13:02;6.50;;;3.63;;
79229;SDS011;68663;49.122;17.544;2023-07-13T03:15:28;5.15;;;3.85;;
79229;SDS011;68663;49.122;17.544;2023-07-13T03:17:54;5.22;;;3.60;;
79229;SDS011;68663;49.122;17.544;2023-07-13T03:20:19;5.20;;;3.73;;
79229;SDS011;68663;49.122;17.544;2023-07-13T03:22:45;6.13;;;3.97;;
79229;SDS011;68663;49.122;17.544;2023-07-13T03:25:10;5.90;;;3.90;;
79229;SDS011;68663;49.122;17.544;2023-07-13T03:27:36;8.68;;;3.92;;
79229;SDS011;68663;49.122;17.544;2023-07-13T03:30:03;4.47;;;3.55;;
79229;SDS011;68663;49.122;17.544;2023-07-13T03:32:31;4.50;;;4.05;;
79229;SDS011;68663;49.122;17.544;2023-07-13T03:34:57;5.32;;;4.00;;
79229;SDS011;68663;49.122;17.544;2023-07-13T03:37:23;5.30;;;4.30;;
79229;SDS011;68663;49.122;17.544;2023-07-13T03:39:48;6.18;;;4.43;;
79229;SDS011;68663;49.122;17.544;2023-07-13T03:42:14;8.98;;;4.28;;
79229;SDS011;68663;49.122;17.544;2023-07-13T03:44:39;6.10;;;3.92;;
79229;SDS011;68663;49.122;17.544;2023-07-13T03:47:05;7.85;;;4.07;;
79229;SDS011;68663;49.122;17.544;2023-07-13T03:49:31;5.85;;;4.25;;
79229;SDS011;68663;49.122;17.544;2023-07-13T03:51:56;6.63;;;4.07;;
79229;SDS011;68663;49.122;17.544;2023-07-13T03:54:22;6.30;;;4.18;;
79229;SDS011;68663;49.122;17.544;2023-07-13T03:56:47;7.18;;;4.20;;
79229;SDS011;68663;49.122;17.544;2023-07-13T03:59:13;6.63;;;4.03;;
79229;SDS011;68663;49.122;17.544;2023-07-13T04:01:38;6.18;;;3.58;;
79229;SDS011;68663;49.122;17.544;2023-07-13T04:04:04;7.10;;;4.25;;
79229;SDS011;68663;49.122;17.544;2023-07-13T04:06:29;5.55;;;3.88;;
79229;SDS011;68663;49.122;17.544;2023-07-13T04:08:56;6.90;;;3.95;;
79229;SDS011;68663;49.122;17.544;2023-07-13T04:11:24;5.40;;;4.05;;
79229;SDS011;68663;49.122;17.544;2023-07-13T04:13:51;5.00;;;3.85;;
79229;SDS011;68663;49.122;17.544;2023-07-13T04:16:17;5.05;;;3.40;;
79229;SDS011;68663;49.122;17.544;2023-07-13T04:18:44;6.32;;;4.00;;
79229;SDS011;68663;49.122;17.544;2023-07-13T04:21:10;4.88;;;3.85;;
79229;SDS011;68663;49.122;17.544;2023-07-13T04:23:36;6.22;;;4.03;;
79229;SDS011;68663;49.122;17.544;2023-07-13T04:26:02;4.45;;;3.78;;
79229;SDS011;68663;49.122;17.544;2023-07-13T04:28:28;5.70;;;3.70;;
79229;SDS011;68663;49.122;17.544;2023-07-13T04:30:53;5.13;;;3.65;;
79229;SDS011;68663;49.122;17.544;2023-07-13T04:33:20;4.75;;;3.65;;
79229;SDS011;68663;49.122;17.544;2023-07-13T04:35:49;6.35;;;4.05;;
79229;SDS011;68663;49.122;17.544;2023-07-13T04:38:15;9.55;;;3.90;;
79229;SDS011;68663;49.122;17.544;2023-07-13T04:40:42;4.88;;;3.65;;
79229;SDS011;68663;49.122;17.544;2023-07-13T04:43:10;4.22;;;3.72;;
79229;SDS011;68663;49.122;17.544;2023-07-13T04:45:35;5.03;;;3.67;;
79229;SDS011;68663;49.122;17.544;2023-07-13T04:48:01;5.10;;;3.45;;
79229;SDS011;68663;49.122;17.544;2023-07-13T04:50:26;5.28;;;3.83;;
79229;SDS011;68663;49.122;17.544;2023-07-13T04:52:52;4.23;;;3.13;;
79229;SDS011;68663;49.122;17.544;2023-07-13T04:55:17;6.32;;;3.88;;
79229;SDS011;68663;49.122;17.544;2023-07-13T04:57:44;5.15;;;3.67;;
79229;SDS011;68663;49.122;17.544;2023-07-13T05:00:10;5.32;;;3.85;;
79229;SDS011;68663;49.122;17.544;2023-07-13T05:02:37;3.95;;;3.08;;
79229;SDS011;68663;49.122;17.544;2023-07-13T05:05:04;7.72;;;3.90;;
79229;SDS011;68663;49.122;17.544;2023-07-13T05:07:29;4.70;;;3.20;;
79229;SDS011;68663;49.122;17.544;2023-07-13T05:09:55;4.78;;;3.22;;
79229;SDS011;68663;49.122;17.544;2023-07-13T05:12:21;4.25;;;3.25;;
79229;SDS011;68663;49.122;17.544;2023-07-13T05:14:46;8.23;;;3.67;;
79229;SDS011;68663;49.122;17.544;2023-07-13T05:17:13;4.95;;;3.80;;
79229;SDS011;68663;49.122;17.544;2023-07-13T05:19:39;6.43;;;3.88;;
79229;SDS011;68663;49.122;17.544;2023-07-13T05:22:04;5.13;;;3.30;;
79229;SDS011;68663;49.122;17.544;2023-07-13T05:24:30;5.15;;;3.53;;
79229;SDS011;68663;49.122;17.544;2023-07-13T05:26:56;6.57;;;3.53;;
79229;SDS011;68663;49.122;17.544;2023-07-13T05:29:21;4.93;;;3.83;;
79229;SDS011;68663;49.122;17.544;2023-07-13T05:31:47;4.25;;;3.17;;
79229;SDS011;68663;49.122;17.544;2023-07-13T05:34:13;4.35;;;3.22;;
79229;SDS011;68663;49.122;17.544;2023-07-13T05:36:39;8.07;;;3.88;;
79229;SDS011;68663;49.122;17.544;2023-07-13T05:39:05;6.28;;;3.60;;
79229;SDS011;68663;49.122;17.544;2023-07-13T05:41:30;4.63;;;3.72;;
79229;SDS011;68663;49.122;17.544;2023-07-13T05:43:55;4.30;;;3.70;;
79229;SDS011;68663;49.122;17.544;2023-07-13T05:46:21;5.23;;;3.40;;
79229;SDS011;68663;49.122;17.544;2023-07-13T05:48:46;6.05;;;3.45;;
79229;SDS011;68663;49.122;17.544;2023-07-13T05:51:11;4.65;;;3.35;;
79229;SDS011;68663;49.122;17.544;2023-07-13T05:53:37;4.47;;;3.67;;
79229;SDS011;68663;49.122;17.544;2023-07-13T05:56:02;5.20;;;3.70;;
79229;SDS011;68663;49.122;17.544;2023-07-13T05:58:28;5.18;;;3.53;;
79229;SDS011;68663;49.122;17.544;2023-07-13T06:01:00;6.07;;;3.60;;
79229;SDS011;68663;49.122;17.544;2023-07-13T06:03:30;5.75;;;3.40;;
79229;SDS011;68663;49.122;17.544;2023-07-13T06:05:56;4.20;;;3.20;;
79229;SDS011;68663;49.122;17.544;2023-07-13T06:08:22;5.53;;;3.15;;
79229;SDS011;68663;49.122;17.544;2023-07-13T06:10:47;6.33;;;4.03;;
79229;SDS011;68663;49.122;17.544;2023-07-13T06:13:12;6.13;;;3.45;;
79229;SDS011;68663;49.122;17.544;2023-07-13T06:15:38;4.68;;;3.45;;
79229;SDS011;68663;49.122;17.544;2023-07-13T06:18:03;5.45;;;3.45;;
79229;SDS011;68663;49.122;17.544;2023-07-13T06:20:29;5.47;;;3.20;;
79229;SDS011;68663;49.122;17.544;2023-07-13T06:22:55;5.10;;;3.65;;
79229;SDS011;68663;49.122;17.544;2023-07-13T06:25:20;6.13;;;3.80;;
79229;SDS011;68663;49.122;17.544;2023-07-13T06:27:46;7.05;;;3.95;;
79229;SDS011;68663;49.122;17.544;2023-07-13T06:30:11;6.05;;;3.90;;
79229;SDS011;68663;49.122;17.544;2023-07-13T06:32:37;7.03;;;3.75;;
79229;SDS011;68663;49.122;17.544;2023-07-13T06:35:03;5.07;;;3.35;;
79229;SDS011;68663;49.122;17.544;2023-07-13T06:37:28;4.68;;;3.75;;
79229;SDS011;68663;49.122;17.544;2023-07-13T06:39:54;5.68;;;3.55;;
79229;SDS011;68663;49.122;17.544;2023-07-13T06:42:19;10.35;;;4.43;;
79229;SDS011;68663;49.122;17.544;2023-07-13T06:44:45;5.88;;;4.20;;
79229;SDS011;68663;49.122;17.544;2023-07-13T06:47:10;8.38;;;4.22;;
79229;SDS011;68663;49.122;17.544;2023-07-13T06:49:35;4.47;;;3.60;;
79229;SDS011;68663;49.122;17.544;2023-07-13T06:52:01;6.30;;;4.15;;
79229;SDS011;68663;49.122;17.544;2023-07-13T06:54:26;4.95;;;3.83;;
79229;SDS011;68663;49.122;17.544;2023-07-13T06:56:52;4.22;;;3.33;;
79229;SDS011;68663;49.122;17.544;2023-07-13T06:59:18;9.50;;;3.65;;
79229;SDS011;68663;49.122;17.544;2023-07-13T07:01:44;6.28;;;3.38;;
79229;SDS011;68663;49.122;17.544;2023-07-13T07:04:10;4.55;;;3.83;;
79229;SDS011;68663;49.122;17.544;2023-07-13T07:06:35;6.10;;;3.55;;
79229;SDS011;68663;49.122;17.544;2023-07-13T07:09:00;8.50;;;4.38;;
79229;SDS011;68663;49.122;17.544;2023-07-13T07:11:26;4.65;;;3.40;;
79229;SDS011;68663;49.122;17.544;2023-07-13T07:13:52;5.13;;;4.00;;
79229;SDS011;68663;49.122;17.544;2023-07-13T07:16:18;5.38;;;3.63;;
79229;SDS011;68663;49.122;17.544;2023-07-13T07:18:45;6.45;;;4.22;;
79229;SDS011;68663;49.122;17.544;2023-07-13T07:21:11;7.05;;;3.67;;
79229;SDS011;68663;49.122;17.544;2023-07-13T07:23:37;7.20;;;4.28;;
79229;SDS011;68663;49.122;17.544;2023-07-13T07:26:02;11.50;;;6.32;;
79229;SDS011;68663;49.122;17.544;2023-07-13T07:28:28;17.33;;;8.18;;
79229;SDS011;68663;49.122;17.544;2023-07-13T07:30:55;11.68;;;4.97;;
79229;SDS011;68663;49.122;17.544;2023-07-13T07:33:21;9.13;;;4.80;;
79229;SDS011;68663;49.122;17.544;2023-07-13T07:35:47;9.20;;;4.18;;
79229;SDS011;68663;49.122;17.544;2023-07-13T07:38:13;6.00;;;4.20;;
79229;SDS011;68663;49.122;17.544;2023-07-13T07:40:39;5.28;;;3.70;;
79229;SDS011;68663;49.122;17.544;2023-07-13T07:43:09;7.47;;;4.30;;
79229;SDS011;68663;49.122;17.544;2023-07-13T07:45:35;7.43;;;4.22;;
79229;SDS011;68663;49.122;17.544;2023-07-13T07:48:02;8.85;;;5.00;;
79229;SDS011;68663;49.122;17.544;2023-07-13T07:50:29;7.53;;;4.05;;
79229;SDS011;68663;49.122;17.544;2023-07-13T07:52:55;9.27;;;4.05;;
79229;SDS011;68663;49.122;17.544;2023-07-13T07:55:23;13.18;;;5.90;;
79229;SDS011;68663;49.122;17.544;2023-07-13T07:57:53;14.00;;;6.28;;
79229;SDS011;68663;49.122;17.544;2023-07-13T08:00:18;20.88;;;8.35;;
79229;SDS011;68663;49.122;17.544;2023-07-13T08:02:44;10.70;;;4.88;;
79229;SDS011;68663;49.122;17.544;2023-07-13T08:05:10;11.55;;;4.88;;
79229;SDS011;68663;49.122;17.544;2023-07-13T08:07:39;7.80;;;4.50;;
79229;SDS011;68663;49.122;17.544;2023-07-13T08:10:05;6.97;;;4.35;;
79229;SDS011;68663;49.122;17.544;2023-07-13T08:12:35;8.38;;;4.78;;
79229;SDS011;68663;49.122;17.544;2023-07-13T08:15:02;5.90;;;3.90;;
79229;SDS011;68663;49.122;17.544;2023-07-13T08:17:28;8.98;;;4.63;;
79229;SDS011;68663;49.122;17.544;2023-07-13T08:19:54;8.63;;;4.72;;
79229;SDS011;68663;49.122;17.544;2023-07-13T08:22:20;5.85;;;4.03;;
79229;SDS011;68663;49.122;17.544;2023-07-13T08:24:45;5.20;;;4.20;;
79229;SDS011;68663;49.122;17.544;2023-07-13T08:27:12;6.45;;;3.90;;
79229;SDS011;68663;49.122;17.544;2023-07-13T08:29:38;6.47;;;3.95;;
79229;SDS011;68663;49.122;17.544;2023-07-13T08:32:04;8.93;;;3.95;;
79229;SDS011;68663;49.122;17.544;2023-07-13T08:34:34;6.25;;;4.10;;
79229;SDS011;68663;49.122;17.544;2023-07-13T08:37:00;6.95;;;4.40;;
79229;SDS011;68663;49.122;17.544;2023-07-13T08:39:25;5.55;;;4.05;;
79229;SDS011;68663;49.122;17.544;2023-07-13T08:41:54;8.25;;;4.53;;
79229;SDS011;68663;49.122;17.544;2023-07-13T08:44:30;6.78;;;4.57;;
79229;SDS011;68663;49.122;17.544;2023-07-13T08:47:08;6.32;;;3.97;;
79229;SDS011;68663;49.122;17.544;2023-07-13T08:49:36;8.65;;;4.40;;
79229;SDS011;68663;49.122;17.544;2023-07-13T08:52:37;6.90;;;4.40;;
79229;SDS011;68663;49.122;17.544;2023-07-13T08:54:58;5.25;;;4.30;;
79229;SDS011;68663;49.122;17.544;2023-07-13T08:57:31;5.30;;;4.13;;
79229;SDS011;68663;49.122;17.544;2023-07-13T08:59:59;7.47;;;4.28;;
79229;SDS011;68663;49.122;17.544;2023-07-13T09:10:15;9.35;;;5.70;;
79229;SDS011;68663;49.122;17.544;2023-07-13T09:13:32;8.93;;;4.28;;
79229;SDS011;68663;49.122;17.544;2023-07-13T09:15:44;6.00;;;4.50;;
79229;SDS011;68663;49.122;17.544;2023-07-13T09:18:15;6.82;;;4.35;;
79229;SDS011;68663;49.122;17.544;2023-07-13T09:23:30;5.97;;;4.47;;
79229;SDS011;68663;49.122;17.544;2023-07-13T09:26:09;7.47;;;4.97;;
79229;SDS011;68663;49.122;17.544;2023-07-13T09:28:42;6.63;;;4.93;;
79229;SDS011;68663;49.122;17.544;2023-07-13T09:31:17;6.65;;;4.28;;
79229;SDS011;68663;49.122;17.544;2023-07-13T09:33:48;9.98;;;4.40;;
79229;SDS011;68663;49.122;17.544;2023-07-13T09:36:20;5.13;;;4.25;;
79229;SDS011;68663;49.122;17.544;2023-07-13T09:38:59;7.10;;;5.18;;
79229;SDS011;68663;49.122;17.544;2023-07-13T09:44:35;6.55;;;4.80;;
79229;SDS011;68663;49.122;17.544;2023-07-13T09:47:17;9.98;;;4.50;;
79229;SDS011;68663;49.122;17.544;2023-07-13T09:49:44;7.38;;;5.13;;
79229;SDS011;68663;49.122;17.544;2023-07-13T09:52:14;6.32;;;5.65;;
79229;SDS011;68663;49.122;17.544;2023-07-13T09:54:44;5.60;;;4.38;;
79229;SDS011;68663;49.122;17.544;2023-07-13T09:57:16;6.25;;;4.28;;
79229;SDS011;68663;49.122;17.544;2023-07-13T09:59:45;5.25;;;4.63;;
79229;SDS011;68663;49.122;17.544;2023-07-13T10:05:00;6.25;;;4.32;;
79229;SDS011;68663;49.122;17.544;2023-07-13T10:07:30;6.00;;;4.45;;
79229;SDS011;68663;49.122;17.544;2023-07-13T10:09:57;4.82;;;4.25;;
79229;SDS011;68663;49.122;17.544;2023-07-13T10:12:29;5.70;;;4.35;;
79229;SDS011;68663;49.122;17.544;2023-07-13T10:15:00;5.10;;;4.22;;
79229;SDS011;68663;49.122;17.544;2023-07-13T10:17:29;5.13;;;4.32;;
79229;SDS011;68663;49.122;17.544;2023-07-13T10:20:00;4.78;;;4.38;;
79229;SDS011;68663;49.122;17.544;2023-07-13T10:25:26;4.72;;;4.22;;
79229;SDS011;68663;49.122;17.544;2023-07-13T10:27:56;5.18;;;4.30;;
79229;SDS011;68663;49.122;17.544;2023-07-13T10:30:28;4.28;;;3.83;;
79229;SDS011;68663;49.122;17.544;2023-07-13T10:33:03;5.32;;;4.25;;
79229;SDS011;68663;49.122;17.544;2023-07-13T10:35:37;5.97;;;4.47;;
79229;SDS011;68663;49.122;17.544;2023-07-13T10:38:07;5.88;;;4.35;;
79229;SDS011;68663;49.122;17.544;2023-07-13T10:40:37;6.13;;;5.53;;
79229;SDS011;68663;49.122;17.544;2023-07-13T10:43:50;5.53;;;4.40;;
79229;SDS011;68663;49.122;17.544;2023-07-13T10:46:04;5.40;;;4.22;;
79229;SDS011;68663;49.122;17.544;2023-07-13T10:48:33;5.55;;;4.63;;
79229;SDS011;68663;49.122;17.544;2023-07-13T10:51:01;7.85;;;4.10;;
79229;SDS011;68663;49.122;17.544;2023-07-13T10:53:33;5.60;;;4.28;;
79229;SDS011;68663;49.122;17.544;2023-07-13T10:56:04;6.03;;;4.53;;
79229;SDS011;68663;49.122;17.544;2023-07-13T10:58:43;6.35;;;5.38;;
79229;SDS011;68663;49.122;17.544;2023-07-13T11:01:14;5.55;;;4.53;;
79229;SDS011;68663;49.122;17.544;2023-07-13T11:04:00;4.50;;;3.70;;
79229;SDS011;68663;49.122;17.544;2023-07-13T11:08:57;7.20;;;5.65;;
79229;SDS011;68663;49.122;17.544;2023-07-13T11:21:17;4.87;;;4.33;;
79229;SDS011;68663;49.122;17.544;2023-07-13T11:23:52;6.25;;;4.88;;
79229;SDS011;68663;49.122;17.544;2023-07-13T11:34:18;28.88;;;10.30;;
79229;SDS011;68663;49.122;17.544;2023-07-13T11:36:50;13.55;;;6.88;;
79229;SDS011;68663;49.122;17.544;2023-07-13T11:39:17;13.25;;;7.60;;
79229;SDS011;68663;49.122;17.544;2023-07-13T11:41:53;10.82;;;5.78;;
79229;SDS011;68663;49.122;17.544;2023-07-13T11:44:23;9.95;;;5.95;;
79229;SDS011;68663;49.122;17.544;2023-07-13T11:46:51;11.27;;;7.20;;
79229;SDS011;68663;49.122;17.544;2023-07-13T11:49:21;12.57;;;6.65;;
79229;SDS011;68663;49.122;17.544;2023-07-13T11:51:48;8.30;;;6.90;;
79229;SDS011;68663;49.122;17.544;2023-07-13T11:54:32;9.52;;;7.25;;
79229;SDS011;68663;49.122;17.544;2023-07-13T11:57:01;11.25;;;6.70;;
79229;SDS011;68663;49.122;17.544;2023-07-13T11:59:31;8.68;;;6.75;;
79229;SDS011;68663;49.122;17.544;2023-07-13T12:01:58;8.32;;;6.47;;
79229;SDS011;68663;49.122;17.544;2023-07-13T12:04:25;7.68;;;6.28;;
79229;SDS011;68663;49.122;17.544;2023-07-13T12:06:54;8.85;;;7.03;;
79229;SDS011;68663;49.122;17.544;2023-07-13T12:09:39;7.72;;;6.78;;
79229;SDS011;68663;49.122;17.544;2023-07-13T12:12:09;9.38;;;6.50;;
79229;SDS011;68663;49.122;17.544;2023-07-13T12:14:36;9.73;;;6.18;;
79229;SDS011;68663;49.122;17.544;2023-07-13T12:17:03;10.73;;;7.13;;
79229;SDS011;68663;49.122;17.544;2023-07-13T12:22:02;9.43;;;6.43;;
79229;SDS011;68663;49.122;17.544;2023-07-13T12:24:27;8.40;;;6.10;;
79229;SDS011;68663;49.122;17.544;2023-07-13T12:27:03;11.20;;;6.40;;
79229;SDS011;68663;49.122;17.544;2023-07-13T12:29:29;8.38;;;5.75;;
79229;SDS011;68663;49.122;17.544;2023-07-13T12:31:56;8.80;;;5.35;;
79229;SDS011;68663;49.122;17.544;2023-07-13T12:34:23;11.82;;;5.32;;
79229;SDS011;68663;49.122;17.544;2023-07-13T12:36:58;5.97;;;4.25;;
79229;SDS011;68663;49.122;17.544;2023-07-13T12:42:21;7.85;;;4.40;;
79229;SDS011;68663;49.122;17.544;2023-07-13T12:44:54;6.63;;;3.97;;
79229;SDS011;68663;49.122;17.544;2023-07-13T12:47:23;8.57;;;4.60;;
79229;SDS011;68663;49.122;17.544;2023-07-13T12:49:58;7.68;;;4.22;;
79229;SDS011;68663;49.122;17.544;2023-07-13T12:55:04;6.18;;;4.05;;
79229;SDS011;68663;49.122;17.544;2023-07-13T13:02:48;6.63;;;4.68;;
79229;SDS011;68663;49.122;17.544;2023-07-13T13:05:15;8.48;;;4.97;;
79229;SDS011;68663;49.122;17.544;2023-07-13T13:07:41;6.00;;;4.45;;
79229;SDS011;68663;49.122;17.544;2023-07-13T13:10:13;9.02;;;4.93;;
79229;SDS011;68663;49.122;17.544;2023-07-13T13:12:39;6.68;;;4.63;;
79229;SDS011;68663;49.122;17.544;2023-07-13T13:15:07;7.18;;;4.80;;
79229;SDS011;68663;49.122;17.544;2023-07-13T13:17:33;5.40;;;4.45;;
79229;SDS011;68663;49.122;17.544;2023-07-13T13:19:59;5.25;;;4.22;;
79229;SDS011;68663;49.122;17.544;2023-07-13T13:22:24;8.50;;;4.25;;
79229;SDS011;68663;49.122;17.544;2023-07-13T13:24:50;6.22;;;4.63;;
79229;SDS011;68663;49.122;17.544;2023-07-13T13:27:19;8.35;;;5.25;;
79229;SDS011;68663;49.122;17.544;2023-07-13T13:29:48;5.93;;;4.32;;
79229;SDS011;68663;49.122;17.544;2023-07-13T13:32:16;6.22;;;5.40;;
79229;SDS011;68663;49.122;17.544;2023-07-13T13:34:43;5.80;;;4.15;;
79229;SDS011;68663;49.122;17.544;2023-07-13T13:37:20;6.65;;;4.60;;
79229;SDS011;68663;49.122;17.544;2023-07-13T13:39:48;5.20;;;4.63;;
79229;SDS011;68663;49.122;17.544;2023-07-13T13:42:14;7.63;;;5.10;;
79229;SDS011;68663;49.122;17.544;2023-07-13T13:44:40;6.80;;;4.80;;
79229;SDS011;68663;49.122;17.544;2023-07-13T13:47:16;5.30;;;4.57;;
79229;SDS011;68663;49.122;17.544;2023-07-13T13:49:50;5.47;;;4.35;;
79229;SDS011;68663;49.122;17.544;2023-07-13T13:52:16;5.78;;;4.80;;
79229;SDS011;68663;49.122;17.544;2023-07-13T13:54:41;6.57;;;4.57;;
79229;SDS011;68663;49.122;17.544;2023-07-13T13:57:08;6.72;;;4.30;;
79229;SDS011;68663;49.122;17.544;2023-07-13T13:59:33;4.95;;;4.25;;
79229;SDS011;68663;49.122;17.544;2023-07-13T14:02:07;6.85;;;4.60;;
79229;SDS011;68663;49.122;17.544;2023-07-13T14:04:47;5.97;;;4.72;;
79229;SDS011;68663;49.122;17.544;2023-07-13T14:07:14;5.30;;;4.80;;
79229;SDS011;68663;49.122;17.544;2023-07-13T14:09:39;7.13;;;5.25;;
79229;SDS011;68663;49.122;17.544;2023-07-13T14:12:05;11.03;;;5.17;;
79229;SDS011;68663;49.122;17.544;2023-07-13T14:14:34;5.85;;;5.07;;
79229;SDS011;68663;49.122;17.544;2023-07-13T14:17:00;7.88;;;5.63;;
79229;SDS011;68663;49.122;17.544;2023-07-13T14:19:25;6.85;;;5.53;;
79229;SDS011;68663;49.122;17.544;2023-07-13T14:21:51;7.85;;;5.28;;
79229;SDS011;68663;49.122;17.544;2023-07-13T14:24:18;7.60;;;5.55;;
79229;SDS011;68663;49.122;17.544;2023-07-13T14:26:43;5.32;;;4.80;;
79229;SDS011;68663;49.122;17.544;2023-07-13T14:29:15;6.28;;;4.85;;
79229;SDS011;68663;49.122;17.544;2023-07-13T14:31:42;6.60;;;5.60;;
79229;SDS011;68663;49.122;17.544;2023-07-13T14:34:09;5.97;;;5.32;;
79229;SDS011;68663;49.122;17.544;2023-07-13T14:36:40;6.25;;;5.20;;
79229;SDS011;68663;49.122;17.544;2023-07-13T14:39:15;6.57;;;5.90;;
79229;SDS011;68663;49.122;17.544;2023-07-13T14:41:43;7.60;;;5.63;;
79229;SDS011;68663;49.122;17.544;2023-07-13T14:44:15;6.80;;;5.18;;
79229;SDS011;68663;49.122;17.544;2023-07-13T14:46:41;6.07;;;5.25;;
79229;SDS011;68663;49.122;17.544;2023-07-13T14:49:19;7.38;;;5.35;;
79229;SDS011;68663;49.122;17.544;2023-07-13T14:51:47;5.15;;;4.65;;
79229;SDS011;68663;49.122;17.544;2023-07-13T14:54:12;9.50;;;5.05;;
79229;SDS011;68663;49.122;17.544;2023-07-13T14:56:38;6.70;;;4.82;;
79229;SDS011;68663;49.122;17.544;2023-07-13T14:59:03;5.90;;;5.10;;
79229;SDS011;68663;49.122;17.544;2023-07-13T15:01:30;7.80;;;5.63;;
79229;SDS011;68663;49.122;17.544;2023-07-13T15:03:55;5.97;;;5.13;;
79229;SDS011;68663;49.122;17.544;2023-07-13T15:06:22;6.22;;;5.35;;
79229;SDS011;68663;49.122;17.544;2023-07-13T15:08:47;5.68;;;4.95;;
79229;SDS011;68663;49.122;17.544;2023-07-13T15:11:13;7.30;;;4.80;;
79229;SDS011;68663;49.122;17.544;2023-07-13T15:13:39;6.90;;;5.00;;
79229;SDS011;68663;49.122;17.544;2023-07-13T15:16:18;5.47;;;4.90;;
79229;SDS011;68663;49.122;17.544;2023-07-13T15:18:48;5.80;;;4.93;;
79229;SDS011;68663;49.122;17.544;2023-07-13T15:21:17;5.97;;;5.38;;
79229;SDS011;68663;49.122;17.544;2023-07-13T15:23:46;6.45;;;4.75;;
79229;SDS011;68663;49.122;17.544;2023-07-13T15:26:15;5.30;;;4.80;;
79229;SDS011;68663;49.122;17.544;2023-07-13T15:28:42;5.40;;;4.90;;
79229;SDS011;68663;49.122;17.544;2023-07-13T15:31:19;4.75;;;4.35;;
79229;SDS011;68663;49.122;17.544;2023-07-13T15:33:49;5.45;;;4.95;;
79229;SDS011;68663;49.122;17.544;2023-07-13T15:36:17;5.35;;;4.85;;
79229;SDS011;68663;49.122;17.544;2023-07-13T15:38:44;6.75;;;5.18;;
79229;SDS011;68663;49.122;17.544;2023-07-13T15:43:50;6.13;;;4.68;;